American Canyon, CA

5:34 PM PDT on July 23, 2016 (GMT -0700)
South Napa Junction | | Change Station

Elev 72 ft 38.18 °N, 122.25 °W | Updated 1 minute ago

Clear
Clear
87.1 °F
Feels Like 86 °F
N
6.3
Wind Variable Wind from SSE

Today
High -- | Low -- °F
--% Chance of Precip.
Yesterday
High -- | Low -- °F
Precip. -- in
Pressure 29.83 in
Visibility 10.0 miles
Clouds Clear
Heat Index 86 °F
Dew Point 58 °F
Humidity 37%
Rainfall 0.00 in
Snow Depth Not available.
6:04 AM 8:25 PM
Waning Gibbous, 81% visible
METAR KAPC 232354Z AUTO 19013KT 10SM CLR 29/13 A2985 RMK AO2 SLP099 T02940133 10311 20233 56021 TSNO
Pressure 29.83 in
Visibility 10.0 miles
Clouds Clear
Heat Index 86 °F
Dew Point 58 °F
Humidity 37%
Rainfall 0.00 in
Snow Depth Not available.
6:04 AM 8:25 PM
Waning Gibbous, 81% visible
METAR KAPC 232354Z AUTO 19013KT 10SM CLR 29/13 A2985 RMK AO2 SLP099 T02940133 10311 20233 56021 TSNO

10-Day Weather Forecast

Almanac

Astronomy

Jul. 23, 2016 Rise Set
Actual Time
Civil Twilight
Nautical Twilight
Astronomical Twilight
Moon
Length of Visible Light
Length of Day
Tomorrow will be .
, % of the Moon is Illuminated

Today's Extremes

State Highs State Lows

Community

WunderPhotos

Upload Photos

1,926,982 photos uploaded!

WunderBlog® & News

Nearby

Air Quality

  Air Quality AQ Index Pollutant
Not available.

Snow Depth

Station Depth Elevation

Earthquake Activity

City Distance Mag. Time & Date
Minimum magnitude displayed is 2.5.

Coastal Water Temperatures

Place Temperature

Stations

Nearby Weather Stations

Station Location Temp. Windchill Dew Point Humidity Wind Precip. Elev Updated Type
                   

Watches & Warnings

There are currently no watches in effect.